Takeley, United Kingdom
Current Conditions -  °F | °C
As of 7:50 AM on Saturday 20 Dec 2014 (Local Time) from EGSS Reporting Station
Broken Clouds Broken Clouds  
Wind Chill:   Ceiling: 4100
Heat Index:   Visibility: 6mi
Dew Point:   Wind: 13mph
Humidity: 87%   Direction: 240°WSW
Pressure: 30.18"   Gusts: NA
Location:  51.87°N, 0.27°E
Report Text: EGSS 200750Z 24011KT 9999 BKN041 05/03 Q1022
Loading
Personal Weather Stations






























Interactive Weather Map New forecast layout! Learn more

10-Day Weather Forecast

Advertisements
Track Severe Weather on mobile